createdAt,value
2023-03-05T00:05:58.525Z,94.98
2023-03-05T00:16:04.308Z,95.49
2023-03-05T00:26:08.296Z,96.63
2023-03-05T00:36:11.610Z,98.38
2023-03-05T00:46:15.638Z,98.61
2023-03-05T00:56:18.239Z,99.45
2023-03-05T01:06:22.316Z,99.47
2023-03-05T01:16:25.004Z,99.26
2023-03-05T01:26:29.071Z,99.90
2023-03-05T01:36:31.994Z,99.86
2023-03-05T01:46:38.050Z,99.22
2023-03-05T01:56:42.395Z,99.14
2023-03-05T02:06:47.571Z,99.03
2023-03-05T02:16:50.239Z,98.37
2023-03-05T02:26:54.610Z,98.54
2023-03-05T02:36:57.239Z,98.24
2023-03-05T02:47:01.520Z,97.95
2023-03-05T02:57:04.379Z,98.27
2023-03-05T03:07:08.450Z,98.57
2023-03-05T03:17:13.197Z,99.67
2023-03-05T03:27:17.156Z,99.22
2023-03-05T03:37:19.837Z,98.57
2023-03-05T03:47:23.809Z,99.06
2023-03-05T03:57:26.406Z,98.58
2023-03-05T04:07:30.408Z,98.92
2023-03-05T04:17:34.225Z,99.20
2023-03-05T04:27:40.081Z,99.49
2023-03-05T04:37:42.819Z,99.27
2023-03-05T04:47:46.849Z,99.29
2023-03-05T04:57:49.474Z,99.17
2023-03-05T05:07:57.056Z,99.11
2023-03-05T05:17:59.920Z,99.28
2023-03-05T05:28:03.945Z,99.94
2023-03-05T05:38:06.564Z,99.26
2023-03-05T05:48:10.669Z,99.77
2023-03-05T05:58:13.349Z,100.08
2023-03-05T06:08:17.398Z,100.89
2023-03-05T06:18:20.013Z,100.51
2023-03-05T06:28:23.977Z,100.18
2023-03-05T06:38:26.985Z,100.05
2023-03-05T06:48:31.141Z,99.90
2023-03-05T06:58:33.873Z,99.23
2023-03-05T07:08:38.928Z,98.64
2023-03-05T07:18:41.617Z,97.94
2023-03-05T07:28:45.625Z,97.29
2023-03-05T07:38:48.333Z,97.20
2023-03-05T07:48:52.550Z,96.62
2023-03-05T07:58:55.412Z,96.35
2023-03-05T08:09:00.142Z,94.56
2023-03-05T08:19:02.884Z,93.40
2023-03-05T08:29:07.894Z,93.40
2023-03-05T08:39:10.797Z,92.50
2023-03-05T08:49:14.728Z,91.22
2023-03-05T08:59:17.653Z,87.59
2023-03-05T09:09:22.937Z,85.38
2023-03-05T09:19:27.356Z,82.19
2023-03-05T09:29:31.460Z,80.57
2023-03-05T09:39:34.092Z,82.26
2023-03-05T09:49:46.761Z,81.32
2023-03-05T09:59:52.786Z,79.10
2023-03-05T10:09:59.774Z,80.01
2023-03-05T10:20:23.485Z,79.24
2023-03-05T10:30:48.281Z,78.79
2023-03-05T10:40:53.662Z,87.03
2023-03-05T10:51:02.234Z,86.42
2023-03-05T11:01:21.952Z,83.24
2023-03-05T11:11:26.940Z,81.97
2023-03-05T11:21:30.517Z,76.77
2023-03-05T11:31:34.644Z,70.61
2023-03-05T11:41:40.010Z,61.42
2023-03-05T11:51:49.804Z,59.25
2023-03-05T12:01:54.716Z,41.48
2023-03-05T12:12:07.869Z,42.16
2023-03-05T12:22:18.500Z,31.21
2023-03-05T12:32:57.122Z,32.35
2023-03-05T12:43:01.466Z,25.62
2023-03-05T12:53:13.538Z,38.16
2023-03-05T13:03:19.281Z,39.52
2023-03-05T13:13:25.421Z,52.74
2023-03-05T13:23:29.320Z,46.54
2023-03-05T13:33:35.697Z,39.56
2023-03-05T13:43:44.417Z,41.96
2023-03-05T13:53:49.303Z,43.55
2023-03-05T14:03:53.902Z,46.16
2023-03-05T14:14:07.883Z,50.95
2023-03-05T14:24:14.394Z,55.16
2023-03-05T14:34:23.859Z,59.79
2023-03-05T14:44:26.525Z,56.63
2023-03-05T14:54:36.993Z,58.45
2023-03-05T15:04:40.514Z,60.64
2023-03-05T15:14:44.667Z,62.41
2023-03-05T15:24:47.305Z,56.90
2023-03-05T15:34:51.279Z,60.06
2023-03-05T15:44:54.002Z,63.85
2023-03-05T15:54:57.949Z,67.14
2023-03-05T16:05:00.561Z,77.73
2023-03-05T16:15:05.154Z,84.04
2023-03-05T16:25:08.744Z,83.28
2023-03-05T16:35:13.132Z,84.50
2023-03-05T16:45:15.884Z,85.60
2023-03-05T16:55:19.931Z,86.79
2023-03-05T17:05:22.650Z,86.06
2023-03-05T17:15:26.678Z,85.61
2023-03-05T17:25:29.540Z,85.37
2023-03-05T17:35:34.994Z,86.71
2023-03-05T17:45:37.879Z,89.41
2023-03-05T17:55:41.872Z,91.34
2023-03-05T18:05:45.405Z,90.68
2023-03-05T18:15:49.386Z,89.83
2023-03-05T18:25:51.997Z,89.97
2023-03-05T18:35:56.053Z,89.83
2023-03-05T18:45:59.126Z,89.41
2023-03-05T18:56:03.233Z,89.08
2023-03-05T19:06:07.480Z,89.86
2023-03-05T19:16:13.786Z,90.11
2023-03-05T19:26:16.417Z,89.64
2023-03-05T19:36:20.447Z,89.60
2023-03-05T19:46:23.495Z,89.12
2023-03-05T19:56:27.725Z,88.91
2023-03-05T20:06:31.723Z,89.62
2023-03-05T20:16:37.553Z,89.38
2023-03-05T20:26:41.314Z,89.12
2023-03-05T20:36:46.391Z,90.08
2023-03-05T20:47:42.336Z,90.28
2023-03-05T20:57:46.334Z,89.95
2023-03-05T21:07:49.461Z,90.50
2023-03-05T21:17:53.492Z,89.58
2023-03-05T21:27:58.285Z,89.91
2023-03-05T21:38:03.222Z,89.44
2023-03-05T21:48:06.713Z,89.44
2023-03-05T21:58:10.687Z,89.36
2023-03-05T22:08:13.363Z,88.15
2023-03-05T22:18:19.380Z,87.96
2023-03-05T22:28:21.965Z,86.28
2023-03-05T22:38:26.247Z,87.00
2023-03-05T22:48:28.845Z,89.38
2023-03-05T22:58:32.825Z,89.67
2023-03-05T23:08:35.617Z,90.66
2023-03-05T23:18:39.569Z,94.58
2023-03-05T23:28:42.609Z,96.82
2023-03-05T23:38:46.898Z,98.34
2023-03-05T23:48:49.525Z,98.89
2023-03-05T23:58:55.950Z,100.29
